sensor_id;sensor_type;location;lat;lon;timestamp;P1;durP1;ratioP1;P2;durP2;ratioP2
72125;SDS011;59999;51.676;22.650;2024-02-21T00:02:20;16.13;;;6.47;;
72125;SDS011;59999;51.676;22.650;2024-02-21T00:04:46;17.30;;;6.32;;
72125;SDS011;59999;51.676;22.650;2024-02-21T00:07:12;18.40;;;6.43;;
72125;SDS011;59999;51.676;22.650;2024-02-21T00:09:38;18.70;;;7.55;;
72125;SDS011;59999;51.676;22.650;2024-02-21T00:12:04;15.90;;;6.57;;
72125;SDS011;59999;51.676;22.650;2024-02-21T00:14:30;18.95;;;7.00;;
72125;SDS011;59999;51.676;22.650;2024-02-21T00:16:56;16.05;;;6.45;;
72125;SDS011;59999;51.676;22.650;2024-02-21T00:19:22;18.20;;;6.55;;
72125;SDS011;59999;51.676;22.650;2024-02-21T00:21:48;15.75;;;6.60;;
72125;SDS011;59999;51.676;22.650;2024-02-21T00:24:14;15.13;;;6.35;;
72125;SDS011;59999;51.676;22.650;2024-02-21T00:26:39;17.58;;;6.60;;
72125;SDS011;59999;51.676;22.650;2024-02-21T00:29:05;14.80;;;6.22;;
72125;SDS011;59999;51.676;22.650;2024-02-21T00:31:31;16.50;;;6.20;;
72125;SDS011;59999;51.676;22.650;2024-02-21T00:33:57;16.13;;;5.95;;
72125;SDS011;59999;51.676;22.650;2024-02-21T00:36:23;16.43;;;6.27;;
72125;SDS011;59999;51.676;22.650;2024-02-21T00:38:49;18.10;;;5.53;;
72125;SDS011;59999;51.676;22.650;2024-02-21T00:41:15;12.43;;;5.20;;
72125;SDS011;59999;51.676;22.650;2024-02-21T00:43:41;14.53;;;5.30;;
72125;SDS011;59999;51.676;22.650;2024-02-21T00:46:07;12.02;;;4.40;;
72125;SDS011;59999;51.676;22.650;2024-02-21T00:48:33;11.95;;;4.15;;
72125;SDS011;59999;51.676;22.650;2024-02-21T00:50:59;10.57;;;3.83;;
72125;SDS011;59999;51.676;22.650;2024-02-21T00:53:25;9.17;;;3.67;;
72125;SDS011;59999;51.676;22.650;2024-02-21T00:55:51;8.48;;;2.70;;
72125;SDS011;59999;51.676;22.650;2024-02-21T00:58:17;10.30;;;3.40;;
72125;SDS011;59999;51.676;22.650;2024-02-21T01:00:42;9.63;;;3.27;;
72125;SDS011;59999;51.676;22.650;2024-02-21T01:03:08;10.77;;;3.30;;
72125;SDS011;59999;51.676;22.650;2024-02-21T01:05:34;9.77;;;3.10;;
72125;SDS011;59999;51.676;22.650;2024-02-21T01:08:00;12.85;;;3.10;;
72125;SDS011;59999;51.676;22.650;2024-02-21T01:10:26;11.60;;;2.80;;
72125;SDS011;59999;51.676;22.650;2024-02-21T01:12:52;7.60;;;2.53;;
72125;SDS011;59999;51.676;22.650;2024-02-21T01:15:17;9.60;;;2.30;;
72125;SDS011;59999;51.676;22.650;2024-02-21T01:17:43;8.87;;;2.60;;
72125;SDS011;59999;51.676;22.650;2024-02-21T01:20:09;7.70;;;2.03;;
72125;SDS011;59999;51.676;22.650;2024-02-21T01:22:36;7.32;;;1.88;;
72125;SDS011;59999;51.676;22.650;2024-02-21T01:25:01;7.60;;;1.70;;
72125;SDS011;59999;51.676;22.650;2024-02-21T01:27:27;7.20;;;1.83;;
72125;SDS011;59999;51.676;22.650;2024-02-21T01:29:53;6.93;;;1.40;;
72125;SDS011;59999;51.676;22.650;2024-02-21T01:32:19;8.50;;;1.60;;
72125;SDS011;59999;51.676;22.650;2024-02-21T01:34:44;7.27;;;1.83;;
72125;SDS011;59999;51.676;22.650;2024-02-21T01:37:10;10.13;;;1.63;;
72125;SDS011;59999;51.676;22.650;2024-02-21T01:39:37;8.57;;;1.63;;
72125;SDS011;59999;51.676;22.650;2024-02-21T01:42:03;6.50;;;1.10;;
72125;SDS011;59999;51.676;22.650;2024-02-21T01:44:29;5.75;;;1.20;;
72125;SDS011;59999;51.676;22.650;2024-02-21T01:46:55;6.90;;;1.42;;
72125;SDS011;59999;51.676;22.650;2024-02-21T01:49:20;7.63;;;1.50;;
72125;SDS011;59999;51.676;22.650;2024-02-21T01:51:47;6.47;;;1.50;;
72125;SDS011;59999;51.676;22.650;2024-02-21T01:54:13;7.18;;;1.42;;
72125;SDS011;59999;51.676;22.650;2024-02-21T01:56:42;7.90;;;1.77;;
72125;SDS011;59999;51.676;22.650;2024-02-21T01:59:08;6.60;;;1.35;;
72125;SDS011;59999;51.676;22.650;2024-02-21T02:01:35;8.77;;;1.73;;
72125;SDS011;59999;51.676;22.650;2024-02-21T02:04:00;8.38;;;1.60;;
72125;SDS011;59999;51.676;22.650;2024-02-21T02:06:26;6.13;;;1.70;;
72125;SDS011;59999;51.676;22.650;2024-02-21T02:08:53;5.93;;;1.70;;
72125;SDS011;59999;51.676;22.650;2024-02-21T02:11:20;8.30;;;1.90;;
72125;SDS011;59999;51.676;22.650;2024-02-21T02:13:45;7.73;;;2.07;;
72125;SDS011;59999;51.676;22.650;2024-02-21T02:16:11;7.35;;;1.88;;
72125;SDS011;59999;51.676;22.650;2024-02-21T02:18:37;10.07;;;2.50;;
72125;SDS011;59999;51.676;22.650;2024-02-21T02:21:04;9.73;;;2.28;;
72125;SDS011;59999;51.676;22.650;2024-02-21T02:23:36;8.32;;;2.15;;
72125;SDS011;59999;51.676;22.650;2024-02-21T02:26:02;8.07;;;2.20;;
72125;SDS011;59999;51.676;22.650;2024-02-21T02:28:27;7.85;;;1.92;;
72125;SDS011;59999;51.676;22.650;2024-02-21T02:30:53;9.55;;;2.35;;
72125;SDS011;59999;51.676;22.650;2024-02-21T02:33:20;8.52;;;2.50;;
72125;SDS011;59999;51.676;22.650;2024-02-21T02:35:46;8.97;;;2.47;;
72125;SDS011;59999;51.676;22.650;2024-02-21T02:38:12;7.97;;;2.25;;
72125;SDS011;59999;51.676;22.650;2024-02-21T02:40:39;9.60;;;2.55;;
72125;SDS011;59999;51.676;22.650;2024-02-21T02:43:06;12.82;;;2.70;;
72125;SDS011;59999;51.676;22.650;2024-02-21T02:45:32;11.25;;;2.50;;
72125;SDS011;59999;51.676;22.650;2024-02-21T02:47:58;8.60;;;2.70;;
72125;SDS011;59999;51.676;22.650;2024-02-21T02:50:24;12.00;;;2.60;;
72125;SDS011;59999;51.676;22.650;2024-02-21T02:52:51;10.18;;;2.35;;
72125;SDS011;59999;51.676;22.650;2024-02-21T02:55:18;9.65;;;2.65;;
72125;SDS011;59999;51.676;22.650;2024-02-21T02:57:44;10.43;;;2.47;;
72125;SDS011;59999;51.676;22.650;2024-02-21T03:00:10;12.60;;;2.45;;
72125;SDS011;59999;51.676;22.650;2024-02-21T03:02:37;9.43;;;2.40;;
72125;SDS011;59999;51.676;22.650;2024-02-21T03:05:14;9.73;;;2.28;;
72125;SDS011;59999;51.676;22.650;2024-02-21T03:07:42;7.57;;;2.15;;
72125;SDS011;59999;51.676;22.650;2024-02-21T03:10:09;9.23;;;2.25;;
72125;SDS011;59999;51.676;22.650;2024-02-21T03:12:35;10.00;;;2.60;;
72125;SDS011;59999;51.676;22.650;2024-02-21T03:15:01;8.63;;;1.90;;
72125;SDS011;59999;51.676;22.650;2024-02-21T03:17:27;10.90;;;2.28;;
72125;SDS011;59999;51.676;22.650;2024-02-21T03:19:53;8.07;;;1.95;;
72125;SDS011;59999;51.676;22.650;2024-02-21T03:22:20;9.63;;;2.30;;
72125;SDS011;59999;51.676;22.650;2024-02-21T03:24:47;10.55;;;2.10;;
72125;SDS011;59999;51.676;22.650;2024-02-21T03:27:12;9.98;;;2.03;;
72125;SDS011;59999;51.676;22.650;2024-02-21T03:29:38;9.07;;;2.40;;
72125;SDS011;59999;51.676;22.650;2024-02-21T03:32:04;7.50;;;2.15;;
72125;SDS011;59999;51.676;22.650;2024-02-21T03:34:30;11.63;;;2.10;;
72125;SDS011;59999;51.676;22.650;2024-02-21T03:36:55;10.60;;;2.00;;
72125;SDS011;59999;51.676;22.650;2024-02-21T03:39:21;10.65;;;2.42;;
72125;SDS011;59999;51.676;22.650;2024-02-21T03:41:47;9.87;;;2.40;;
72125;SDS011;59999;51.676;22.650;2024-02-21T03:44:13;8.25;;;2.35;;
72125;SDS011;59999;51.676;22.650;2024-02-21T03:46:39;8.70;;;2.47;;
72125;SDS011;59999;51.676;22.650;2024-02-21T03:49:05;10.75;;;2.72;;
72125;SDS011;59999;51.676;22.650;2024-02-21T03:51:30;12.87;;;2.77;;
72125;SDS011;59999;51.676;22.650;2024-02-21T03:53:56;10.00;;;2.92;;
72125;SDS011;59999;51.676;22.650;2024-02-21T03:56:22;12.82;;;2.58;;
72125;SDS011;59999;51.676;22.650;2024-02-21T03:58:48;9.33;;;2.60;;
72125;SDS011;59999;51.676;22.650;2024-02-21T04:01:15;10.10;;;2.55;;
72125;SDS011;59999;51.676;22.650;2024-02-21T04:03:42;9.73;;;2.40;;
72125;SDS011;59999;51.676;22.650;2024-02-21T04:06:08;11.43;;;2.72;;
72125;SDS011;59999;51.676;22.650;2024-02-21T04:08:34;11.07;;;2.33;;
72125;SDS011;59999;51.676;22.650;2024-02-21T04:11:00;10.27;;;2.58;;
72125;SDS011;59999;51.676;22.650;2024-02-21T04:13:26;11.63;;;2.50;;
72125;SDS011;59999;51.676;22.650;2024-02-21T04:15:52;8.15;;;2.40;;
72125;SDS011;59999;51.676;22.650;2024-02-21T04:18:18;11.70;;;2.85;;
72125;SDS011;59999;51.676;22.650;2024-02-21T04:20:43;11.87;;;2.43;;
72125;SDS011;59999;51.676;22.650;2024-02-21T04:23:09;9.75;;;2.35;;
72125;SDS011;59999;51.676;22.650;2024-02-21T04:25:35;14.02;;;3.03;;
72125;SDS011;59999;51.676;22.650;2024-02-21T04:28:02;9.77;;;2.28;;
72125;SDS011;59999;51.676;22.650;2024-02-21T04:30:28;10.87;;;2.63;;
72125;SDS011;59999;51.676;22.650;2024-02-21T04:32:54;12.43;;;3.10;;
72125;SDS011;59999;51.676;22.650;2024-02-21T04:35:19;10.55;;;2.58;;
72125;SDS011;59999;51.676;22.650;2024-02-21T04:37:46;11.53;;;2.80;;
72125;SDS011;59999;51.676;22.650;2024-02-21T04:40:11;10.07;;;2.67;;
72125;SDS011;59999;51.676;22.650;2024-02-21T04:42:38;15.07;;;3.25;;
72125;SDS011;59999;51.676;22.650;2024-02-21T04:45:04;13.93;;;2.73;;
72125;SDS011;59999;51.676;22.650;2024-02-21T04:47:30;12.75;;;3.42;;
72125;SDS011;59999;51.676;22.650;2024-02-21T04:49:56;11.93;;;3.50;;
72125;SDS011;59999;51.676;22.650;2024-02-21T04:52:22;13.00;;;3.63;;
72125;SDS011;59999;51.676;22.650;2024-02-21T04:54:48;10.23;;;3.05;;
72125;SDS011;59999;51.676;22.650;2024-02-21T04:57:14;12.83;;;2.83;;
72125;SDS011;59999;51.676;22.650;2024-02-21T04:59:45;16.73;;;3.38;;
72125;SDS011;59999;51.676;22.650;2024-02-21T05:02:13;10.18;;;2.28;;
72125;SDS011;59999;51.676;22.650;2024-02-21T05:04:39;12.68;;;2.95;;
72125;SDS011;59999;51.676;22.650;2024-02-21T05:07:07;11.57;;;3.13;;
72125;SDS011;59999;51.676;22.650;2024-02-21T05:09:33;11.23;;;3.80;;
72125;SDS011;59999;51.676;22.650;2024-02-21T05:11:59;13.57;;;3.88;;
72125;SDS011;59999;51.676;22.650;2024-02-21T05:14:28;10.80;;;3.58;;
72125;SDS011;59999;51.676;22.650;2024-02-21T05:16:54;11.50;;;3.63;;
72125;SDS011;59999;51.676;22.650;2024-02-21T05:19:19;14.82;;;3.58;;
72125;SDS011;59999;51.676;22.650;2024-02-21T05:21:45;12.43;;;3.90;;
72125;SDS011;59999;51.676;22.650;2024-02-21T05:24:11;15.13;;;4.30;;
72125;SDS011;59999;51.676;22.650;2024-02-21T05:26:37;12.55;;;4.05;;
72125;SDS011;59999;51.676;22.650;2024-02-21T05:29:03;11.55;;;3.25;;
72125;SDS011;59999;51.676;22.650;2024-02-21T05:34:18;16.23;;;4.72;;
72125;SDS011;59999;51.676;22.650;2024-02-21T05:36:45;16.02;;;3.80;;
72125;SDS011;59999;51.676;22.650;2024-02-21T05:39:11;12.38;;;3.92;;
72125;SDS011;59999;51.676;22.650;2024-02-21T05:41:37;17.57;;;4.50;;
72125;SDS011;59999;51.676;22.650;2024-02-21T05:44:03;11.95;;;3.58;;
72125;SDS011;59999;51.676;22.650;2024-02-21T05:46:29;12.77;;;4.00;;
72125;SDS011;59999;51.676;22.650;2024-02-21T05:48:55;14.60;;;3.90;;
72125;SDS011;59999;51.676;22.650;2024-02-21T05:51:20;13.90;;;4.50;;
72125;SDS011;59999;51.676;22.650;2024-02-21T05:53:46;18.00;;;4.05;;
72125;SDS011;59999;51.676;22.650;2024-02-21T05:56:15;10.87;;;2.80;;
72125;SDS011;59999;51.676;22.650;2024-02-21T05:58:42;18.70;;;5.57;;
72125;SDS011;59999;51.676;22.650;2024-02-21T06:01:08;13.93;;;4.70;;
72125;SDS011;59999;51.676;22.650;2024-02-21T06:03:34;19.52;;;5.57;;
72125;SDS011;59999;51.676;22.650;2024-02-21T06:06:00;21.60;;;5.97;;
72125;SDS011;59999;51.676;22.650;2024-02-21T06:08:26;21.35;;;7.78;;
72125;SDS011;59999;51.676;22.650;2024-02-21T06:10:52;24.73;;;7.75;;
72125;SDS011;59999;51.676;22.650;2024-02-21T06:13:20;22.63;;;7.00;;
72125;SDS011;59999;51.676;22.650;2024-02-21T06:15:47;26.13;;;8.57;;
72125;SDS011;59999;51.676;22.650;2024-02-21T06:18:13;36.63;;;11.85;;
72125;SDS011;59999;51.676;22.650;2024-02-21T06:20:39;30.10;;;9.67;;
72125;SDS011;59999;51.676;22.650;2024-02-21T06:23:06;35.30;;;10.73;;
72125;SDS011;59999;51.676;22.650;2024-02-21T06:25:32;48.08;;;18.73;;
72125;SDS011;59999;51.676;22.650;2024-02-21T06:27:58;36.40;;;13.77;;
72125;SDS011;59999;51.676;22.650;2024-02-21T06:30:23;36.30;;;11.93;;
72125;SDS011;59999;51.676;22.650;2024-02-21T06:32:49;35.83;;;14.13;;
72125;SDS011;59999;51.676;22.650;2024-02-21T06:35:15;34.42;;;10.27;;
72125;SDS011;59999;51.676;22.650;2024-02-21T06:37:42;21.65;;;6.03;;
72125;SDS011;59999;51.676;22.650;2024-02-21T06:40:10;21.80;;;8.07;;
72125;SDS011;59999;51.676;22.650;2024-02-21T06:42:36;25.30;;;6.97;;
72125;SDS011;59999;51.676;22.650;2024-02-21T06:45:02;24.70;;;7.25;;
72125;SDS011;59999;51.676;22.650;2024-02-21T06:47:28;21.20;;;6.60;;
72125;SDS011;59999;51.676;22.650;2024-02-21T06:49:54;27.85;;;7.78;;
72125;SDS011;59999;51.676;22.650;2024-02-21T06:52:20;31.58;;;9.82;;
72125;SDS011;59999;51.676;22.650;2024-02-21T06:54:46;20.97;;;7.73;;
72125;SDS011;59999;51.676;22.650;2024-02-21T06:57:13;27.02;;;8.95;;
72125;SDS011;59999;51.676;22.650;2024-02-21T06:59:39;24.98;;;7.85;;
72125;SDS011;59999;51.676;22.650;2024-02-21T07:02:06;20.23;;;7.30;;
72125;SDS011;59999;51.676;22.650;2024-02-21T07:04:31;20.35;;;6.30;;
72125;SDS011;59999;51.676;22.650;2024-02-21T07:06:58;22.65;;;6.30;;
72125;SDS011;59999;51.676;22.650;2024-02-21T07:09:23;18.87;;;6.53;;
72125;SDS011;59999;51.676;22.650;2024-02-21T07:11:49;18.40;;;6.07;;
72125;SDS011;59999;51.676;22.650;2024-02-21T07:14:15;21.07;;;6.97;;
72125;SDS011;59999;51.676;22.650;2024-02-21T07:16:41;16.08;;;5.75;;
72125;SDS011;59999;51.676;22.650;2024-02-21T07:19:07;18.80;;;5.93;;
72125;SDS011;59999;51.676;22.650;2024-02-21T07:21:32;18.67;;;5.75;;
72125;SDS011;59999;51.676;22.650;2024-02-21T07:23:58;22.15;;;7.38;;
72125;SDS011;59999;51.676;22.650;2024-02-21T07:26:24;20.80;;;7.37;;
72125;SDS011;59999;51.676;22.650;2024-02-21T07:28:50;20.23;;;7.10;;
72125;SDS011;59999;51.676;22.650;2024-02-21T07:31:16;21.67;;;7.53;;
72125;SDS011;59999;51.676;22.650;2024-02-21T07:33:41;23.42;;;7.13;;
72125;SDS011;59999;51.676;22.650;2024-02-21T07:36:09;17.70;;;6.40;;
72125;SDS011;59999;51.676;22.650;2024-02-21T07:38:36;18.88;;;6.70;;
72125;SDS011;59999;51.676;22.650;2024-02-21T07:41:02;16.97;;;6.70;;
72125;SDS011;59999;51.676;22.650;2024-02-21T07:43:29;19.48;;;5.78;;
72125;SDS011;59999;51.676;22.650;2024-02-21T07:45:55;19.55;;;6.00;;
72125;SDS011;59999;51.676;22.650;2024-02-21T07:48:21;19.50;;;5.90;;
72125;SDS011;59999;51.676;22.650;2024-02-21T07:50:50;16.13;;;5.43;;
72125;SDS011;59999;51.676;22.650;2024-02-21T07:53:16;15.18;;;5.00;;
72125;SDS011;59999;51.676;22.650;2024-02-21T07:55:42;14.73;;;4.80;;
72125;SDS011;59999;51.676;22.650;2024-02-21T07:58:08;17.40;;;5.70;;
72125;SDS011;59999;51.676;22.650;2024-02-21T08:00:34;16.98;;;5.50;;
72125;SDS011;59999;51.676;22.650;2024-02-21T08:02:59;16.23;;;4.87;;
72125;SDS011;59999;51.676;22.650;2024-02-21T08:05:25;18.50;;;5.45;;
72125;SDS011;59999;51.676;22.650;2024-02-21T08:07:51;19.77;;;6.00;;
72125;SDS011;59999;51.676;22.650;2024-02-21T08:10:17;16.20;;;4.43;;
72125;SDS011;59999;51.676;22.650;2024-02-21T08:12:43;14.38;;;4.78;;
72125;SDS011;59999;51.676;22.650;2024-02-21T08:15:09;16.80;;;5.47;;
72125;SDS011;59999;51.676;22.650;2024-02-21T08:17:36;13.85;;;4.18;;
72125;SDS011;59999;51.676;22.650;2024-02-21T08:20:03;19.95;;;5.53;;
72125;SDS011;59999;51.676;22.650;2024-02-21T08:22:30;19.20;;;5.90;;
72125;SDS011;59999;51.676;22.650;2024-02-21T08:24:55;18.83;;;5.90;;
72125;SDS011;59999;51.676;22.650;2024-02-21T08:27:22;14.13;;;4.13;;
72125;SDS011;59999;51.676;22.650;2024-02-21T08:29:48;13.13;;;4.65;;
72125;SDS011;59999;51.676;22.650;2024-02-21T08:32:14;15.40;;;3.78;;
72125;SDS011;59999;51.676;22.650;2024-02-21T08:34:40;12.10;;;3.93;;
72125;SDS011;59999;51.676;22.650;2024-02-21T08:37:06;14.18;;;4.93;;
72125;SDS011;59999;51.676;22.650;2024-02-21T08:39:32;13.70;;;4.97;;
72125;SDS011;59999;51.676;22.650;2024-02-21T08:41:57;15.70;;;7.30;;
72125;SDS011;59999;51.676;22.650;2024-02-21T08:44:24;13.50;;;4.45;;
72125;SDS011;59999;51.676;22.650;2024-02-21T08:46:51;18.80;;;4.95;;
72125;SDS011;59999;51.676;22.650;2024-02-21T08:49:17;14.47;;;4.80;;
72125;SDS011;59999;51.676;22.650;2024-02-21T08:51:42;17.23;;;5.60;;
72125;SDS011;59999;51.676;22.650;2024-02-21T08:54:09;16.38;;;5.53;;
72125;SDS011;59999;51.676;22.650;2024-02-21T08:56:34;16.50;;;5.25;;
72125;SDS011;59999;51.676;22.650;2024-02-21T08:59:01;16.58;;;4.72;;
72125;SDS011;59999;51.676;22.650;2024-02-21T09:01:27;13.87;;;4.03;;
72125;SDS011;59999;51.676;22.650;2024-02-21T09:03:53;18.05;;;4.80;;
72125;SDS011;59999;51.676;22.650;2024-02-21T09:06:19;11.82;;;4.35;;
72125;SDS011;59999;51.676;22.650;2024-02-21T09:08:48;13.27;;;3.83;;
72125;SDS011;59999;51.676;22.650;2024-02-21T09:11:14;9.40;;;3.47;;
72125;SDS011;59999;51.676;22.650;2024-02-21T09:13:40;13.07;;;4.88;;
72125;SDS011;59999;51.676;22.650;2024-02-21T09:16:06;13.13;;;3.78;;
72125;SDS011;59999;51.676;22.650;2024-02-21T09:18:32;15.00;;;4.45;;
72125;SDS011;59999;51.676;22.650;2024-02-21T09:20:58;14.30;;;4.90;;
72125;SDS011;59999;51.676;22.650;2024-02-21T09:23:24;14.23;;;4.47;;
72125;SDS011;59999;51.676;22.650;2024-02-21T09:25:50;11.68;;;3.60;;
72125;SDS011;59999;51.676;22.650;2024-02-21T09:28:15;12.52;;;4.72;;
72125;SDS011;59999;51.676;22.650;2024-02-21T09:30:41;17.92;;;5.57;;
72125;SDS011;59999;51.676;22.650;2024-02-21T09:33:07;15.25;;;4.85;;
72125;SDS011;59999;51.676;22.650;2024-02-21T09:35:33;15.37;;;4.70;;
72125;SDS011;59999;51.676;22.650;2024-02-21T09:37:59;19.10;;;3.70;;
72125;SDS011;59999;51.676;22.650;2024-02-21T09:40:25;13.75;;;4.68;;
72125;SDS011;59999;51.676;22.650;2024-02-21T09:42:55;18.30;;;6.37;;
72125;SDS011;59999;51.676;22.650;2024-02-21T09:45:32;12.57;;;4.75;;
72125;SDS011;59999;51.676;22.650;2024-02-21T09:50:40;13.50;;;4.43;;
72125;SDS011;59999;51.676;22.650;2024-02-21T09:53:09;12.63;;;3.75;;
72125;SDS011;59999;51.676;22.650;2024-02-21T09:55:37;13.53;;;4.83;;
72125;SDS011;59999;51.676;22.650;2024-02-21T09:58:07;17.67;;;6.10;;
72125;SDS011;59999;51.676;22.650;2024-02-21T10:00:34;18.92;;;6.65;;
72125;SDS011;59999;51.676;22.650;2024-02-21T10:03:01;16.42;;;5.53;;
72125;SDS011;59999;51.676;22.650;2024-02-21T10:05:36;23.70;;;6.07;;
72125;SDS011;59999;51.676;22.650;2024-02-21T10:08:03;16.63;;;5.80;;
72125;SDS011;59999;51.676;22.650;2024-02-21T10:10:29;15.30;;;5.13;;
72125;SDS011;59999;51.676;22.650;2024-02-21T10:13:05;14.05;;;4.85;;
72125;SDS011;59999;51.676;22.650;2024-02-21T10:15:31;14.60;;;4.68;;
72125;SDS011;59999;51.676;22.650;2024-02-21T10:18:00;17.17;;;4.80;;
72125;SDS011;59999;51.676;22.650;2024-02-21T10:20:28;28.27;;;11.30;;
72125;SDS011;59999;51.676;22.650;2024-02-21T10:23:04;19.95;;;8.65;;
72125;SDS011;59999;51.676;22.650;2024-02-21T10:25:34;15.23;;;5.13;;
72125;SDS011;59999;51.676;22.650;2024-02-21T10:28:13;14.32;;;5.32;;
72125;SDS011;59999;51.676;22.650;2024-02-21T10:30:51;20.90;;;5.90;;
72125;SDS011;59999;51.676;22.650;2024-02-21T10:33:17;16.98;;;6.30;;
72125;SDS011;59999;51.676;22.650;2024-02-21T10:35:47;14.60;;;4.60;;
72125;SDS011;59999;51.676;22.650;2024-02-21T10:38:13;16.90;;;5.35;;
72125;SDS011;59999;51.676;22.650;2024-02-21T10:40:39;15.30;;;5.93;;
72125;SDS011;59999;51.676;22.650;2024-02-21T10:43:05;16.45;;;5.55;;
72125;SDS011;59999;51.676;22.650;2024-02-21T10:45:36;16.40;;;6.53;;
72125;SDS011;59999;51.676;22.650;2024-02-21T10:48:10;17.23;;;7.68;;
72125;SDS011;59999;51.676;22.650;2024-02-21T10:56:05;21.60;;;7.47;;
72125;SDS011;59999;51.676;22.650;2024-02-21T10:58:40;24.17;;;7.88;;
72125;SDS011;59999;51.676;22.650;2024-02-21T11:01:07;23.65;;;7.22;;
72125;SDS011;59999;51.676;22.650;2024-02-21T11:03:33;26.05;;;9.30;;
72125;SDS011;59999;51.676;22.650;2024-02-21T11:06:01;22.98;;;6.60;;
72125;SDS011;59999;51.676;22.650;2024-02-21T11:08:27;16.63;;;6.18;;
72125;SDS011;59999;51.676;22.650;2024-02-21T11:10:56;22.50;;;7.97;;
72125;SDS011;59999;51.676;22.650;2024-02-21T11:13:35;22.83;;;7.00;;
72125;SDS011;59999;51.676;22.650;2024-02-21T11:16:10;20.52;;;7.95;;
72125;SDS011;59999;51.676;22.650;2024-02-21T11:18:37;19.40;;;6.75;;
72125;SDS011;59999;51.676;22.650;2024-02-21T11:21:03;20.25;;;7.82;;
72125;SDS011;59999;51.676;22.650;2024-02-21T11:23:35;22.53;;;7.83;;
72125;SDS011;59999;51.676;22.650;2024-02-21T11:26:04;19.30;;;6.75;;
72125;SDS011;59999;51.676;22.650;2024-02-21T11:28:31;18.58;;;6.18;;
72125;SDS011;59999;51.676;22.650;2024-02-21T11:33:53;26.60;;;8.18;;
72125;SDS011;59999;51.676;22.650;2024-02-21T11:36:25;19.27;;;6.47;;
72125;SDS011;59999;51.676;22.650;2024-02-21T11:38:52;18.27;;;6.70;;
72125;SDS011;59999;51.676;22.650;2024-02-21T11:41:30;22.75;;;6.80;;
72125;SDS011;59999;51.676;22.650;2024-02-21T11:44:38;24.50;;;8.27;;
72125;SDS011;59999;51.676;22.650;2024-02-21T11:47:05;24.35;;;7.85;;
72125;SDS011;59999;51.676;22.650;2024-02-21T11:49:52;19.83;;;6.88;;
72125;SDS011;59999;51.676;22.650;2024-02-21T11:52:26;21.13;;;7.55;;
72125;SDS011;59999;51.676;22.650;2024-02-21T11:54:53;19.92;;;7.22;;
72125;SDS011;59999;51.676;22.650;2024-02-21T11:57:20;18.10;;;6.40;;
72125;SDS011;59999;51.676;22.650;2024-02-21T11:59:46;20.63;;;7.55;;
72125;SDS011;59999;51.676;22.650;2024-02-21T12:02:12;26.40;;;9.65;;
72125;SDS011;59999;51.676;22.650;2024-02-21T12:04:39;27.58;;;10.27;;
72125;SDS011;59999;51.676;22.650;2024-02-21T12:07:05;25.07;;;8.07;;
72125;SDS011;59999;51.676;22.650;2024-02-21T12:09:31;24.30;;;8.60;;
72125;SDS011;59999;51.676;22.650;2024-02-21T12:12:02;22.40;;;8.02;;
72125;SDS011;59999;51.676;22.650;2024-02-21T12:14:31;22.70;;;6.78;;
72125;SDS011;59999;51.676;22.650;2024-02-21T12:16:58;16.93;;;6.70;;
72125;SDS011;59999;51.676;22.650;2024-02-21T12:19:25;18.75;;;7.30;;
72125;SDS011;59999;51.676;22.650;2024-02-21T12:21:50;25.70;;;7.18;;
72125;SDS011;59999;51.676;22.650;2024-02-21T12:24:26;17.80;;;6.03;;
72125;SDS011;59999;51.676;22.650;2024-02-21T12:26:54;21.90;;;7.07;;
72125;SDS011;59999;51.676;22.650;2024-02-21T12:29:21;18.20;;;6.20;;
72125;SDS011;59999;51.676;22.650;2024-02-21T12:31:50;18.08;;;5.60;;
72125;SDS011;59999;51.676;22.650;2024-02-21T12:34:16;17.08;;;6.30;;
72125;SDS011;59999;51.676;22.650;2024-02-21T12:36:42;18.10;;;5.53;;
72125;SDS011;59999;51.676;22.650;2024-02-21T12:39:10;17.83;;;6.78;;
72125;SDS011;59999;51.676;22.650;2024-02-21T12:41:36;20.70;;;5.47;;
72125;SDS011;59999;51.676;22.650;2024-02-21T12:44:10;19.08;;;5.45;;
72125;SDS011;59999;51.676;22.650;2024-02-21T12:46:39;15.93;;;4.90;;
72125;SDS011;59999;51.676;22.650;2024-02-21T12:49:05;17.45;;;6.70;;
72125;SDS011;59999;51.676;22.650;2024-02-21T12:51:33;13.88;;;4.88;;
72125;SDS011;59999;51.676;22.650;2024-02-21T12:53:59;16.15;;;4.43;;
72125;SDS011;59999;51.676;22.650;2024-02-21T12:56:26;14.05;;;4.80;;
72125;SDS011;59999;51.676;22.650;2024-02-21T12:58:58;16.13;;;4.17;;
72125;SDS011;59999;51.676;22.650;2024-02-21T13:01:24;13.32;;;3.92;;
72125;SDS011;59999;51.676;22.650;2024-02-21T13:03:51;17.00;;;4.90;;
72125;SDS011;59999;51.676;22.650;2024-02-21T13:06:17;20.53;;;4.83;;
72125;SDS011;59999;51.676;22.650;2024-02-21T13:08:44;12.85;;;4.43;;
72125;SDS011;59999;51.676;22.650;2024-02-21T13:11:12;15.25;;;4.47;;
72125;SDS011;59999;51.676;22.650;2024-02-21T13:13:38;22.13;;;8.68;;
72125;SDS011;59999;51.676;22.650;2024-02-21T13:16:04;33.42;;;11.00;;
72125;SDS011;59999;51.676;22.650;2024-02-21T13:18:30;40.47;;;15.63;;
72125;SDS011;59999;51.676;22.650;2024-02-21T13:20:58;21.65;;;7.38;;
72125;SDS011;59999;51.676;22.650;2024-02-21T13:23:23;20.58;;;7.55;;
72125;SDS011;59999;51.676;22.650;2024-02-21T13:25:49;16.20;;;5.90;;
72125;SDS011;59999;51.676;22.650;2024-02-21T13:28:15;13.38;;;4.75;;
72125;SDS011;59999;51.676;22.650;2024-02-21T13:30:42;19.80;;;6.45;;
72125;SDS011;59999;51.676;22.650;2024-02-21T13:33:08;129.50;;;45.72;;
72125;SDS011;59999;51.676;22.650;2024-02-21T13:35:35;55.97;;;24.67;;
72125;SDS011;59999;51.676;22.650;2024-02-21T13:38:02;27.30;;;12.07;;
72125;SDS011;59999;51.676;22.650;2024-02-21T13:40:29;22.00;;;8.20;;
72125;SDS011;59999;51.676;22.650;2024-02-21T13:42:54;32.45;;;11.90;;
72125;SDS011;59999;51.676;22.650;2024-02-21T13:45:20;26.95;;;10.73;;
72125;SDS011;59999;51.676;22.650;2024-02-21T13:47:46;17.77;;;6.75;;
72125;SDS011;59999;51.676;22.650;2024-02-21T13:50:13;24.77;;;7.87;;
72125;SDS011;59999;51.676;22.650;2024-02-21T13:52:40;23.10;;;7.78;;
72125;SDS011;59999;51.676;22.650;2024-02-21T13:55:06;26.00;;;6.93;;
72125;SDS011;59999;51.676;22.650;2024-02-21T13:57:35;28.23;;;7.28;;
72125;SDS011;59999;51.676;22.650;2024-02-21T14:00:02;19.67;;;6.78;;
72125;SDS011;59999;51.676;22.650;2024-02-21T14:02:30;20.57;;;6.87;;
72125;SDS011;59999;51.676;22.650;2024-02-21T14:04:56;19.02;;;7.13;;
72125;SDS011;59999;51.676;22.650;2024-02-21T14:07:22;16.85;;;7.07;;
72125;SDS011;59999;51.676;22.650;2024-02-21T14:09:48;21.27;;;6.68;;
72125;SDS011;59999;51.676;22.650;2024-02-21T14:12:15;23.07;;;7.67;;
72125;SDS011;59999;51.676;22.650;2024-02-21T14:14:43;17.63;;;6.82;;
72125;SDS011;59999;51.676;22.650;2024-02-21T14:17:09;25.00;;;9.68;;
72125;SDS011;59999;51.676;22.650;2024-02-21T14:19:35;26.40;;;9.53;;
72125;SDS011;59999;51.676;22.650;2024-02-21T14:22:01;21.42;;;7.93;;
72125;SDS011;59999;51.676;22.650;2024-02-21T14:24:28;24.23;;;8.10;;
72125;SDS011;59999;51.676;22.650;2024-02-21T14:26:53;27.80;;;9.87;;
72125;SDS011;59999;51.676;22.650;2024-02-21T14:29:20;29.33;;;10.02;;
72125;SDS011;59999;51.676;22.650;2024-02-21T14:31:46;28.17;;;8.70;;
72125;SDS011;59999;51.676;22.650;2024-02-21T14:34:12;32.65;;;10.60;;
72125;SDS011;59999;51.676;22.650;2024-02-21T14:36:38;27.08;;;10.02;;